Time;durP1;ratioP1;P1;durP2;ratioP2;P2;SDS_P1;SDS_P2;PMS_P1;PMS_P2;Temp;Humidity;BMP_temperature;BMP_pressure;BME280_temperature;BME280_humidity;BME280_pressure;Samples;Min_cycle;Max_cycle;Signal;HPM_P1;HPM_P2
2021/01/29 00:00:57;;;;;;;1.20;1.00;;;10.60;98.00;;;;;;5072794;28;20463;-66
2021/01/29 00:03:25;;;;;;;1.20;1.00;;;10.60;98.00;;;;;;5074821;28;20493;-67
2021/01/29 00:05:54;;;;;;;1.20;1.00;;;10.60;98.00;;;;;;5072617;28;20930;-67
2021/01/29 00:08:23;;;;;;;1.20;1.00;;;10.50;98.00;;;;;;5075004;28;20451;-66
2021/01/29 00:10:49;;;;;;;1.20;1.00;;;10.50;98.00;;;;;;5072535;28;20862;-66
2021/01/29 00:13:16;;;;;;;1.20;1.00;;;10.50;98.00;;;;;;5074864;28;20456;-66
2021/01/29 00:15:44;;;;;;;1.20;0.90;;;10.60;98.00;;;;;;5072282;28;20457;-66
2021/01/29 00:18:12;;;;;;;1.20;0.90;;;10.50;98.00;;;;;;5074867;28;20528;-67
2021/01/29 00:20:40;;;;;;;1.30;1.00;;;10.50;98.00;;;;;;5072839;28;20978;-68
2021/01/29 00:23:07;;;;;;;1.40;1.00;;;10.50;98.00;;;;;;5074459;28;20541;-67
2021/01/29 00:25:36;;;;;;;1.20;1.00;;;10.40;98.00;;;;;;5072223;28;20470;-68
2021/01/29 00:28:05;;;;;;;1.20;0.90;;;10.40;98.00;;;;;;5074906;28;20795;-67
2021/01/29 00:30:33;;;;;;;2.33;1.50;;;10.40;98.00;;;;;;5072304;28;20494;-65
2021/01/29 00:33:05;;;;;;;1.20;1.00;;;10.40;98.00;;;;;;5074522;28;20463;-66
2021/01/29 00:35:33;;;;;;;1.40;1.23;;;10.40;98.00;;;;;;5071598;28;20570;-67
2021/01/29 00:38:00;;;;;;;1.30;1.13;;;10.30;98.00;;;;;;5074524;28;20541;-67
2021/01/29 00:40:28;;;;;;;1.20;1.00;;;10.30;98.00;;;;;;5072130;28;20945;-67
2021/01/29 00:42:55;;;;;;;1.20;1.00;;;10.30;98.00;;;;;;5074211;28;20463;-67
2021/01/29 00:45:23;;;;;;;1.20;1.00;;;10.40;98.00;;;;;;5071848;28;20459;-69
2021/01/29 00:47:49;;;;;;;1.20;0.90;;;10.40;98.00;;;;;;5074050;28;20932;-67
2021/01/29 00:50:17;;;;;;;1.50;1.37;;;10.30;98.00;;;;;;5071715;28;20456;-66
2021/01/29 00:52:44;;;;;;;1.20;1.00;;;10.30;98.00;;;;;;5074049;28;20477;-66
2021/01/29 00:55:11;;;;;;;1.20;0.90;;;10.30;98.00;;;;;;5070331;28;20462;-66
2021/01/29 00:57:38;;;;;;;1.20;0.90;;;10.20;98.00;;;;;;5073917;28;21133;-67
2021/01/29 01:00:08;;;;;;;1.20;1.00;;;10.20;98.00;;;;;;5071847;28;20494;-67
2021/01/29 01:02:34;;;;;;;1.20;0.90;;;10.30;98.00;;;;;;5073859;28;20459;-66
2021/01/29 01:05:01;;;;;;;1.20;0.90;;;10.20;98.00;;;;;;5071089;28;21013;-67
2021/01/29 01:07:28;;;;;;;1.17;0.97;;;10.20;98.00;;;;;;5073347;28;20463;-66
2021/01/29 01:09:56;;;;;;;1.20;1.00;;;10.20;98.00;;;;;;5069917;28;20492;-65
2021/01/29 01:12:22;;;;;;;1.10;1.00;;;10.20;98.00;;;;;;5073706;28;20516;-66
2021/01/29 01:14:49;;;;;;;1.20;0.93;;;10.30;98.00;;;;;;5071253;28;20794;-66
2021/01/29 01:17:16;;;;;;;1.10;0.90;;;10.20;98.00;;;;;;5072647;28;20492;-66
2021/01/29 01:19:42;;;;;;;1.10;1.00;;;10.20;98.00;;;;;;5071559;28;20457;-67
2021/01/29 01:22:09;;;;;;;1.20;0.97;;;10.20;98.00;;;;;;5073711;28;20965;-67
2021/01/29 01:24:39;;;;;;;1.20;1.00;;;10.20;98.00;;;;;;5071498;28;20594;-68
2021/01/29 01:27:07;;;;;;;1.10;0.90;;;10.20;98.00;;;;;;5073570;28;20463;-67
2021/01/29 01:29:34;;;;;;;1.13;0.90;;;10.20;98.00;;;;;;5071128;28;21160;-66
2021/01/29 01:32:01;;;;;;;1.10;1.00;;;10.20;98.00;;;;;;5073354;28;20457;-66
2021/01/29 01:34:28;;;;;;;1.10;1.00;;;10.20;98.00;;;;;;5071015;28;20512;-68
2021/01/29 01:36:54;;;;;;;1.20;1.00;;;10.20;98.00;;;;;;5073380;28;20473;-66
2021/01/29 01:39:22;;;;;;;1.10;0.90;;;10.20;98.00;;;;;;5069859;28;20478;-66
2021/01/29 01:41:51;;;;;;;1.20;1.00;;;10.30;98.00;;;;;;5073205;28;20879;-67
2021/01/29 01:44:27;;;;;;;1.10;0.90;;;10.20;98.00;;;;;;5071531;28;20526;-67
2021/01/29 01:46:55;;;;;;;1.13;1.00;;;10.20;98.00;;;;;;5073118;28;20474;-66
2021/01/29 01:49:24;;;;;;;2.73;1.07;;;10.20;98.00;;;;;;5070617;28;20961;-67
2021/01/29 01:51:58;;;;;;;1.10;0.90;;;10.20;98.00;;;;;;5073044;28;20459;-67
2021/01/29 01:54:41;;;;;;;1.10;0.90;;;10.20;98.00;;;;;;5070882;28;20801;-66
2021/01/29 01:57:13;;;;;;;1.10;1.00;;;10.20;98.00;;;;;;5072685;28;20468;-67
2021/01/29 01:59:46;;;;;;;1.10;0.90;;;10.20;98.00;;;;;;5070189;28;20459;-67
2021/01/29 02:02:18;;;;;;;1.20;1.00;;;10.20;98.00;;;;;;5072817;28;20862;-65
2021/01/29 02:04:47;;;;;;;1.10;0.90;;;10.10;98.00;;;;;;5068948;28;20512;-66
2021/01/29 02:07:21;;;;;;;1.20;1.13;;;10.10;98.00;;;;;;5072659;28;20489;-66
2021/01/29 02:09:50;;;;;;;1.10;0.97;;;10.00;98.00;;;;;;5070207;28;20464;-66
2021/01/29 02:12:18;;;;;;;1.67;1.00;;;10.00;98.00;;;;;;5072468;28;20503;-67
2021/01/29 02:14:45;;;;;;;1.10;0.90;;;10.00;98.00;;;;;;5068722;28;20518;-67
2021/01/29 02:17:22;;;;;;;1.20;1.03;;;10.00;98.00;;;;;;5072815;28;20499;-66
2021/01/29 02:20:27;;;;;;;1.40;1.10;;;10.00;98.00;;;;;;5069034;28;20490;-68
2021/01/29 02:23:31;;;;;;;1.10;0.97;;;9.90;98.00;;;;;;5048543;28;20461;-66
2021/01/29 02:26:31;;;;;;;1.10;1.00;;;9.90;98.00;;;;;;5070290;28;20488;-68
2021/01/29 02:29:26;;;;;;;1.10;0.90;;;9.90;98.00;;;;;;5072265;28;20510;-67
2021/01/29 02:32:24;;;;;;;1.10;1.00;;;9.90;98.00;;;;;;5028687;28;20847;-65
2021/01/29 02:35:21;;;;;;;1.10;0.90;;;9.90;98.00;;;;;;5069756;28;20501;-66
2021/01/29 02:38:45;;;;;;;1.10;0.90;;;9.90;98.00;;;;;;5035132;28;20488;-66
2021/01/29 02:41:25;;;;;;;1.10;1.00;;;9.90;98.00;;;;;;4987891;28;20463;-68
2021/01/29 02:44:09;;;;;;;1.20;1.00;;;9.90;98.00;;;;;;4990096;28;20608;-67
2021/01/29 02:46:49;;;;;;;1.10;0.90;;;9.80;98.00;;;;;;5040588;28;20456;-66
2021/01/29 02:49:26;;;;;;;1.10;0.90;;;9.90;98.00;;;;;;5071676;28;20503;-67
2021/01/29 02:51:59;;;;;;;1.10;0.93;;;9.90;98.00;;;;;;5071605;28;20452;-67
2021/01/29 02:54:35;;;;;;;1.10;0.90;;;9.90;98.00;;;;;;5069571;28;20978;-66
2021/01/29 02:57:09;;;;;;;1.10;0.90;;;10.00;98.00;;;;;;5071564;28;20474;-67
2021/01/29 02:59:40;;;;;;;1.10;1.00;;;10.00;98.00;;;;;;5068923;28;20472;-67
2021/01/29 03:02:13;;;;;;;1.10;1.00;;;10.00;98.00;;;;;;5071768;28;20957;-67
2021/01/29 03:04:51;;;;;;;1.10;0.90;;;10.00;98.00;;;;;;5068734;28;20538;-66
2021/01/29 03:07:23;;;;;;;1.10;1.00;;;10.00;98.00;;;;;;5071160;28;20995;-67
2021/01/29 03:09:55;;;;;;;1.10;0.90;;;10.00;98.00;;;;;;5069333;28;20456;-67
2021/01/29 03:12:31;;;;;;;1.10;0.90;;;10.00;98.00;;;;;;5071518;28;20487;-66
2021/01/29 03:15:05;;;;;;;1.10;0.90;;;10.00;98.00;;;;;;5069231;28;20841;-68
2021/01/29 03:17:35;;;;;;;1.10;1.00;;;10.00;98.00;;;;;;5071753;28;20470;-66
2021/01/29 03:20:07;;;;;;;1.10;0.97;;;10.00;98.00;;;;;;5069272;28;20516;-66
2021/01/29 03:22:37;;;;;;;1.10;1.00;;;10.10;98.00;;;;;;5071560;28;20486;-65
2021/01/29 03:25:07;;;;;;;1.10;1.00;;;10.10;98.00;;;;;;5069062;28;20981;-66
2021/01/29 03:27:40;;;;;;;1.20;1.10;;;10.10;98.00;;;;;;5071599;28;20485;-66
2021/01/29 03:30:11;;;;;;;1.10;0.90;;;10.10;98.00;;;;;;5069159;28;20492;-66
2021/01/29 03:32:40;;;;;;;1.10;0.90;;;10.20;98.00;;;;;;5070724;28;20457;-66
2021/01/29 03:35:12;;;;;;;1.10;1.10;;;10.20;98.00;;;;;;5068877;28;20460;-67
2021/01/29 03:37:45;;;;;;;1.10;1.00;;;10.20;98.00;;;;;;5070089;28;20465;-68
2021/01/29 03:40:12;;;;;;;1.10;0.90;;;10.30;98.00;;;;;;5069207;28;20819;-66
2021/01/29 03:42:57;;;;;;;1.10;0.90;;;10.30;98.00;;;;;;5071102;28;20460;-67
2021/01/29 03:45:31;;;;;;;1.10;1.00;;;10.30;98.00;;;;;;5067367;28;20527;-66
2021/01/29 03:48:02;;;;;;;1.10;0.93;;;10.30;98.00;;;;;;5070463;28;20455;-68
2021/01/29 03:50:44;;;;;;;1.10;0.90;;;10.30;98.00;;;;;;5068054;28;20815;-66
2021/01/29 03:53:31;;;;;;;1.10;0.90;;;10.30;98.00;;;;;;5070743;28;20460;-67
2021/01/29 03:56:07;;;;;;;1.10;0.97;;;10.20;98.00;;;;;;5068422;28;20531;-67
2021/01/29 03:58:42;;;;;;;1.10;1.00;;;10.30;98.00;;;;;;5071074;28;20950;-66
2021/01/29 04:01:21;;;;;;;1.10;1.00;;;10.30;98.00;;;;;;5067618;28;20486;-67
2021/01/29 04:03:59;;;;;;;1.10;1.00;;;10.30;98.00;;;;;;5070910;28;20562;-67
2021/01/29 04:06:28;;;;;;;1.17;0.90;;;10.30;98.00;;;;;;5069215;28;20463;-67
2021/01/29 04:09:02;;;;;;;1.20;1.00;;;10.30;98.00;;;;;;5070811;28;20486;-67
2021/01/29 04:11:33;;;;;;;1.20;1.00;;;10.30;98.00;;;;;;5068803;28;20464;-67
2021/01/29 04:14:05;;;;;;;1.20;0.90;;;10.30;98.00;;;;;;5070822;28;20451;-67
2021/01/29 04:16:35;;;;;;;1.20;1.00;;;10.30;98.00;;;;;;5069046;28;20494;-65
2021/01/29 04:19:06;;;;;;;1.10;0.90;;;10.20;98.00;;;;;;5071019;28;20459;-67
2021/01/29 04:21:36;;;;;;;1.10;1.00;;;10.20;98.00;;;;;;5067203;28;20458;-67
2021/01/29 04:24:05;;;;;;;1.37;1.20;;;10.20;98.00;;;;;;5071062;28;21048;-66
2021/01/29 04:26:36;;;;;;;1.10;1.00;;;10.20;98.00;;;;;;5068648;28;20460;-68
2021/01/29 04:29:08;;;;;;;1.10;0.90;;;10.20;98.00;;;;;;5070931;28;20780;-67
2021/01/29 04:31:36;;;;;;;1.10;1.00;;;10.10;98.00;;;;;;5068532;28;21007;-68
2021/01/29 04:34:06;;;;;;;1.10;0.90;;;10.00;98.00;;;;;;5070870;28;20471;-66
2021/01/29 04:36:35;;;;;;;1.10;0.90;;;10.10;98.00;;;;;;5068600;28;20485;-67
2021/01/29 04:39:06;;;;;;;1.10;0.90;;;10.00;98.00;;;;;;5070760;28;20558;-67
2021/01/29 04:42:06;;;;;;;2.27;1.40;;;10.00;98.00;;;;;;5068070;28;20467;-66
2021/01/29 04:45:01;;;;;;;1.10;1.00;;;9.90;98.00;;;;;;4990372;28;20523;-67
2021/01/29 04:47:36;;;;;;;1.10;0.90;;;9.90;98.00;;;;;;5072361;28;20472;-67
2021/01/29 04:50:18;;;;;;;1.10;0.93;;;9.90;98.00;;;;;;5071902;28;20855;-67
2021/01/29 04:53:22;;;;;;;1.10;0.90;;;9.90;98.00;;;;;;5074034;28;20867;-66
2021/01/29 04:56:18;;;;;;;1.10;0.90;;;9.90;98.00;;;;;;5037419;28;20549;-66
2021/01/29 04:59:13;;;;;;;1.10;0.90;;;9.90;98.00;;;;;;5073904;28;20470;-66
2021/01/29 05:02:17;;;;;;;1.10;0.90;;;9.80;98.00;;;;;;5050573;28;20494;-66
2021/01/29 05:05:09;;;;;;;1.10;1.00;;;9.90;98.00;;;;;;5050309;28;20493;-66
2021/01/29 05:08:07;;;;;;;1.10;0.90;;;9.80;98.00;;;;;;5073740;28;20507;-66
2021/01/29 05:10:50;;;;;;;1.30;1.10;;;9.80;98.00;;;;;;5071726;28;20935;-66
2021/01/29 05:13:42;;;;;;;1.10;0.90;;;9.80;98.00;;;;;;5072686;28;20453;-66
2021/01/29 05:16:25;;;;;;;1.10;0.90;;;9.80;98.00;;;;;;5071625;28;20810;-68
2021/01/29 05:19:18;;;;;;;1.10;0.90;;;9.70;98.00;;;;;;5073861;28;20818;-66
2021/01/29 05:22:22;;;;;;;1.10;0.90;;;9.80;98.00;;;;;;5071457;28;20510;-66
2021/01/29 05:25:18;;;;;;;1.10;0.90;;;9.70;98.00;;;;;;5068796;28;21053;-66
2021/01/29 05:28:10;;;;;;;1.20;1.20;;;9.80;98.00;;;;;;5037886;28;20460;-66
2021/01/29 05:31:11;;;;;;;1.10;0.90;;;9.80;98.00;;;;;;5071113;28;20550;-66
2021/01/29 05:34:02;;;;;;;1.10;0.90;;;9.80;98.00;;;;;;5073353;28;20445;-68
2021/01/29 05:36:53;;;;;;;1.10;0.90;;;9.80;98.00;;;;;;5070910;28;20521;-66
2021/01/29 05:39:31;;;;;;;1.10;0.90;;;9.80;98.00;;;;;;5073173;28;20476;-67
2021/01/29 05:42:23;;;;;;;1.10;0.90;;;9.80;98.00;;;;;;5071123;28;20468;-67
2021/01/29 05:45:32;;;;;;;1.10;0.90;;;9.80;98.00;;;;;;5070785;28;20527;-66
2021/01/29 05:48:20;;;;;;;1.10;0.90;;;9.70;98.00;;;;;;5072876;28;20470;-66
2021/01/29 05:51:27;;;;;;;1.10;0.90;;;9.70;98.00;;;;;;5070854;28;20471;-66
2021/01/29 05:54:38;;;;;;;1.10;0.90;;;9.60;98.00;;;;;;5049771;28;20468;-66
2021/01/29 05:57:44;;;;;;;1.10;0.90;;;9.60;98.00;;;;;;4988906;28;20492;-68
2021/01/29 06:00:39;;;;;;;1.10;0.90;;;9.50;98.00;;;;;;5070558;28;20460;-67
2021/01/29 06:03:29;;;;;;;1.10;0.90;;;9.50;98.00;;;;;;5072761;28;20453;-67
2021/01/29 06:06:25;;;;;;;3.40;0.97;;;9.50;98.00;;;;;;5070179;28;20521;-66
2021/01/29 06:09:03;;;;;;;1.10;0.90;;;9.50;98.00;;;;;;5035283;28;20963;-65
2021/01/29 06:11:55;;;;;;;1.10;0.90;;;9.40;98.00;;;;;;5070432;28;20463;-65
2021/01/29 06:15:12;;;;;;;1.10;1.00;;;9.40;98.00;;;;;;5072683;28;20510;-66
2021/01/29 06:18:16;;;;;;;1.10;0.90;;;9.50;98.00;;;;;;4990828;28;20938;-66
2021/01/29 06:21:19;;;;;;;1.10;0.90;;;9.50;98.00;;;;;;4972473;28;20469;-67
2021/01/29 06:24:27;;;;;;;1.10;0.90;;;9.50;98.00;;;;;;5072288;28;20489;-66
2021/01/29 06:27:27;;;;;;;1.10;0.90;;;9.50;98.00;;;;;;5069848;28;20489;-66
2021/01/29 06:30:13;;;;;;;1.10;0.90;;;9.50;98.00;;;;;;5069877;28;20480;-66
2021/01/29 06:33:18;;;;;;;1.10;0.90;;;9.60;98.00;;;;;;5071140;28;20463;-65
2021/01/29 06:36:08;;;;;;;1.10;0.90;;;9.70;98.00;;;;;;5028239;28;20459;-66
2021/01/29 06:39:07;;;;;;;1.10;0.90;;;9.80;98.00;;;;;;5068695;28;20467;-66
2021/01/29 06:42:04;;;;;;;1.10;1.00;;;9.60;98.00;;;;;;5069856;28;20474;-67
2021/01/29 06:45:01;;;;;;;1.10;0.90;;;9.60;98.00;;;;;;5067596;28;20488;-66
2021/01/29 06:47:42;;;;;;;1.10;0.90;;;9.60;98.00;;;;;;5034583;28;20875;-66
2021/01/29 06:50:34;;;;;;;1.10;0.90;;;9.60;98.00;;;;;;5069715;28;20464;-67
2021/01/29 06:53:26;;;;;;;1.10;0.90;;;9.60;98.00;;;;;;5035584;28;20453;-66
2021/01/29 06:56:12;;;;;;;1.10;0.90;;;9.60;98.00;;;;;;5069209;28;20599;-66
2021/01/29 06:59:30;;;;;;;1.10;0.90;;;9.60;98.00;;;;;;5071766;28;20466;-66
2021/01/29 07:02:29;;;;;;;1.10;0.90;;;9.60;98.00;;;;;;4988058;28;20469;-65
2021/01/29 07:05:18;;;;;;;1.10;0.90;;;9.60;98.00;;;;;;4987565;28;20526;-65
2021/01/29 07:08:23;;;;;;;1.10;0.90;;;9.60;98.00;;;;;;5066642;28;20468;-65
2021/01/29 07:11:07;;;;;;;1.10;0.90;;;9.50;98.00;;;;;;5049916;28;20518;-65
2021/01/29 07:14:25;;;;;;;1.10;0.90;;;9.50;98.00;;;;;;5071778;28;20452;-65
2021/01/29 07:17:03;;;;;;;1.10;0.90;;;9.50;98.00;;;;;;4987879;28;20535;-68
2021/01/29 07:19:48;;;;;;;1.10;1.00;;;9.50;98.00;;;;;;5070596;28;20466;-65
2021/01/29 07:22:50;;;;;;;1.60;1.27;;;9.50;98.00;;;;;;5053413;28;20460;-66
2021/01/29 07:25:25;;;;;;;1.10;0.90;;;9.50;98.00;;;;;;5069325;28;20953;-66
2021/01/29 07:28:04;;;;;;;1.10;0.90;;;9.50;98.00;;;;;;5071420;28;20455;-67
2021/01/29 07:31:01;;;;;;;1.10;0.90;;;9.60;98.00;;;;;;5069377;28;20468;-64
2021/01/29 07:33:33;;;;;;;1.10;1.00;;;9.60;98.00;;;;;;5067981;28;20485;-66
2021/01/29 07:36:19;;;;;;;1.10;0.90;;;9.50;98.00;;;;;;5069307;28;21004;-65
2021/01/29 07:39:08;;;;;;;1.10;0.90;;;9.50;98.00;;;;;;5071306;28;20474;-65
2021/01/29 07:41:47;;;;;;;1.10;1.00;;;9.60;98.00;;;;;;5068854;28;20456;-64
2021/01/29 07:44:30;;;;;;;1.10;0.90;;;9.60;98.00;;;;;;5071319;28;20993;-65
2021/01/29 07:47:15;;;;;;;1.10;0.90;;;9.60;98.00;;;;;;5069088;28;20457;-66
2021/01/29 07:50:18;;;;;;;1.20;1.20;;;9.60;98.00;;;;;;5070301;28;20457;-65
2021/01/29 07:52:51;;;;;;;1.13;1.00;;;9.70;98.00;;;;;;5071133;28;20464;-65
2021/01/29 07:55:22;;;;;;;1.13;1.00;;;9.70;98.00;;;;;;5068641;28;20470;-65
2021/01/29 07:58:15;;;;;;;1.20;1.00;;;9.70;98.00;;;;;;5071213;28;20463;-66
2021/01/29 08:01:03;;;;;;;1.20;0.90;;;9.80;98.00;;;;;;5068769;28;20461;-66
2021/01/29 08:04:02;;;;;;;1.20;0.93;;;9.80;98.00;;;;;;5071213;28;20466;-64
2021/01/29 08:06:32;;;;;;;1.20;0.90;;;9.80;98.00;;;;;;5069226;28;20463;-66
2021/01/29 08:09:05;;;;;;;1.20;1.00;;;9.80;98.00;;;;;;5070868;28;20869;-65
2021/01/29 08:11:36;;;;;;;1.20;1.00;;;9.80;98.00;;;;;;5069066;28;20537;-66
2021/01/29 08:14:20;;;;;;;1.20;0.90;;;9.70;98.00;;;;;;5071342;28;20450;-67
2021/01/29 08:17:06;;;;;;;1.20;0.90;;;9.80;98.00;;;;;;5069043;28;20973;-69
2021/01/29 08:19:42;;;;;;;1.20;0.90;;;9.80;98.00;;;;;;5073272;28;20465;-65
2021/01/29 08:22:30;;;;;;;1.20;1.00;;;9.80;98.00;;;;;;5072105;28;20459;-65
2021/01/29 08:25:08;;;;;;;1.20;0.90;;;9.90;98.00;;;;;;5070478;28;20545;-65
2021/01/29 08:28:15;;;;;;;1.20;1.00;;;10.00;98.00;;;;;;5074312;28;20462;-65
2021/01/29 08:31:10;;;;;;;1.20;1.00;;;10.00;98.00;;;;;;5071667;28;20464;-65
2021/01/29 08:34:02;;;;;;;1.20;1.00;;;10.00;98.00;;;;;;5074011;28;20488;-66
2021/01/29 08:36:52;;;;;;;1.20;1.00;;;10.10;98.00;;;;;;5027523;28;20938;-64
2021/01/29 08:39:23;;;;;;;1.20;1.00;;;10.10;98.00;;;;;;5070198;28;21028;-65
2021/01/29 08:42:13;;;;;;;1.20;0.90;;;10.20;98.00;;;;;;5071725;28;20499;-68
2021/01/29 08:45:03;;;;;;;1.20;1.00;;;10.20;98.00;;;;;;5073449;28;20492;-66
2021/01/29 08:47:44;;;;;;;1.20;1.00;;;10.20;98.00;;;;;;5073732;28;21273;-66
2021/01/29 08:50:36;;;;;;;1.20;1.00;;;10.30;98.00;;;;;;5071223;28;20461;-65
2021/01/29 08:53:39;;;;;;;1.20;0.90;;;10.40;98.00;;;;;;5064648;28;20945;-65
2021/01/29 08:56:13;;;;;;;1.20;1.00;;;10.40;98.00;;;;;;5071039;28;20468;-65
2021/01/29 08:58:47;;;;;;;1.20;0.90;;;10.40;98.00;;;;;;5073532;28;20464;-66
2021/01/29 09:01:22;;;;;;;1.20;1.00;;;10.40;98.00;;;;;;5071194;28;20455;-64
2021/01/29 09:03:59;;;;;;;1.20;0.90;;;10.40;98.00;;;;;;5073289;28;20452;-65
2021/01/29 09:06:30;;;;;;;1.20;0.90;;;10.40;98.00;;;;;;5071150;28;20936;-67
2021/01/29 09:08:59;;;;;;;1.30;1.13;;;10.50;98.00;;;;;;5073454;28;20824;-67
2021/01/29 09:11:36;;;;;;;1.20;0.90;;;10.50;98.00;;;;;;5071018;28;20974;-66
2021/01/29 09:14:06;;;;;;;1.20;1.00;;;10.60;98.00;;;;;;5073269;28;20485;-66
2021/01/29 09:16:36;;;;;;;1.20;0.90;;;10.60;98.00;;;;;;5069595;28;20459;-64
2021/01/29 09:19:07;;;;;;;1.20;1.00;;;10.60;98.00;;;;;;5073228;28;20823;-65
2021/01/29 09:21:42;;;;;;;1.20;0.93;;;10.60;98.00;;;;;;5070679;28;20467;-65
2021/01/29 09:24:18;;;;;;;1.20;0.90;;;10.50;98.00;;;;;;5072822;28;20483;-65
2021/01/29 09:27:16;;;;;;;1.20;1.00;;;10.60;98.00;;;;;;5070577;28;20461;-65
2021/01/29 09:29:50;;;;;;;1.20;0.90;;;10.70;98.00;;;;;;5072546;28;20534;-66
2021/01/29 09:32:40;;;;;;;1.20;1.00;;;10.70;98.00;;;;;;5070138;28;20531;-65
2021/01/29 09:35:13;;;;;;;1.20;1.00;;;10.70;98.00;;;;;;5067651;28;20513;-65
2021/01/29 09:37:47;;;;;;;1.20;1.00;;;10.80;98.00;;;;;;5072139;28;20464;-64
2021/01/29 09:40:20;;;;;;;1.20;1.00;;;10.90;98.00;;;;;;5069419;28;20870;-67
2021/01/29 09:42:57;;;;;;;1.20;1.00;;;11.00;98.00;;;;;;5072326;28;20465;-65
2021/01/29 09:45:26;;;;;;;1.20;0.90;;;11.10;98.00;;;;;;5069426;28;20488;-66
2021/01/29 09:47:59;;;;;;;1.20;1.00;;;11.30;98.00;;;;;;5070792;28;20463;-66
2021/01/29 09:50:28;;;;;;;1.20;1.00;;;11.40;98.00;;;;;;5069457;28;21014;-66
2021/01/29 09:53:18;;;;;;;1.20;1.00;;;11.50;98.00;;;;;;5071996;28;20480;-65
2021/01/29 09:55:53;;;;;;;1.20;1.00;;;11.50;98.00;;;;;;5069952;28;20518;-66
2021/01/29 09:58:25;;;;;;;1.20;1.00;;;11.50;98.00;;;;;;5072552;28;20475;-65
2021/01/29 10:01:00;;;;;;;1.20;1.00;;;11.50;98.00;;;;;;5070016;28;20489;-66
2021/01/29 10:03:31;;;;;;;1.20;1.00;;;11.40;98.00;;;;;;5072376;28;20875;-65
2021/01/29 10:06:02;;;;;;;1.20;1.00;;;11.30;98.00;;;;;;5070300;28;20874;-65
2021/01/29 10:08:33;;;;;;;1.20;1.00;;;11.30;98.00;;;;;;5072281;28;20845;-66
2021/01/29 10:11:04;;;;;;;1.20;1.00;;;11.30;98.00;;;;;;5069749;28;20483;-65
2021/01/29 10:13:49;;;;;;;1.20;1.00;;;11.30;98.00;;;;;;5072105;28;20466;-66
2021/01/29 10:16:28;;;;;;;1.20;1.00;;;11.30;98.00;;;;;;5068149;28;20491;-66
2021/01/29 10:19:09;;;;;;;1.20;1.00;;;11.30;98.00;;;;;;5072171;28;20460;-65
2021/01/29 10:21:49;;;;;;;1.20;1.00;;;11.30;98.00;;;;;;5069826;28;20455;-65
2021/01/29 10:24:21;;;;;;;1.20;1.00;;;11.40;98.00;;;;;;5071526;28;21295;-67
2021/01/29 10:26:50;;;;;;;1.20;1.00;;;11.40;98.00;;;;;;5069568;28;20462;-67
2021/01/29 10:29:21;;;;;;;1.20;0.90;;;11.40;98.00;;;;;;5070889;28;20456;-66
2021/01/29 10:31:56;;;;;;;1.20;1.00;;;11.30;98.00;;;;;;5069828;28;20523;-65
2021/01/29 10:34:29;;;;;;;1.20;1.00;;;11.30;98.00;;;;;;5071426;28;20898;-66
2021/01/29 10:37:03;;;;;;;1.20;1.00;;;11.20;98.00;;;;;;5068541;28;20462;-66
2021/01/29 10:39:49;;;;;;;1.20;1.00;;;11.20;98.00;;;;;;5071696;28;21203;-65
2021/01/29 10:42:20;;;;;;;1.20;1.00;;;11.20;98.00;;;;;;5067915;28;20988;-66
2021/01/29 10:44:51;;;;;;;1.20;1.00;;;11.10;98.00;;;;;;5070862;28;20488;-64
2021/01/29 10:47:23;;;;;;;1.20;1.00;;;11.10;98.00;;;;;;5069086;28;20623;-65
2021/01/29 10:49:57;;;;;;;1.20;0.90;;;11.10;98.00;;;;;;5071213;28;20518;-66
2021/01/29 10:52:41;;;;;;;1.20;0.90;;;11.10;98.00;;;;;;5068716;28;20936;-66
2021/01/29 10:55:19;;;;;;;1.20;1.00;;;11.10;98.00;;;;;;5069672;28;20472;-65
2021/01/29 10:57:57;;;;;;;1.20;1.00;;;11.20;98.00;;;;;;5071164;28;20479;-65
2021/01/29 11:00:27;;;;;;;1.20;0.90;;;11.40;98.00;;;;;;5068612;28;20503;-66
2021/01/29 11:03:06;;;;;;;1.20;1.00;;;11.50;97.70;;;;;;5071548;28;20452;-65
2021/01/29 11:05:35;;;;;;;1.20;1.00;;;11.50;97.30;;;;;;5068951;28;20528;-67
2021/01/29 11:08:20;;;;;;;1.20;1.00;;;11.60;97.20;;;;;;5070118;28;20463;-65
2021/01/29 11:10:53;;;;;;;1.20;1.10;;;11.70;96.60;;;;;;5069072;28;20464;-67
2021/01/29 11:13:26;;;;;;;1.20;1.00;;;11.80;97.30;;;;;;5070933;28;20970;-66
2021/01/29 11:16:01;;;;;;;1.20;1.00;;;11.90;97.60;;;;;;5068986;28;20967;-67
2021/01/29 11:18:32;;;;;;;1.20;1.00;;;11.90;95.50;;;;;;5071088;28;20548;-65
2021/01/29 11:21:06;;;;;;;1.20;1.00;;;12.00;96.40;;;;;;5068745;28;20484;-66
2021/01/29 11:23:49;;;;;;;1.20;0.90;;;11.90;95.00;;;;;;5069363;28;20488;-65
2021/01/29 11:26:23;;;;;;;1.50;1.10;;;11.80;96.00;;;;;;5068758;28;20460;-67
2021/01/29 11:29:00;;;;;;;1.20;1.10;;;11.70;96.50;;;;;;5071020;28;20590;-66
2021/01/29 11:31:45;;;;;;;1.20;0.90;;;11.60;95.10;;;;;;5068816;28;20486;-66
2021/01/29 11:34:22;;;;;;;1.20;1.10;;;11.50;95.90;;;;;;5070654;28;20453;-66
2021/01/29 11:36:59;;;;;;;1.20;1.00;;;11.50;97.40;;;;;;5068376;28;20463;-67
2021/01/29 11:39:34;;;;;;;1.20;1.00;;;11.70;97.70;;;;;;5070763;28;20467;-65
2021/01/29 11:42:08;;;;;;;1.40;1.07;;;11.70;98.00;;;;;;5068673;28;20456;-67
2021/01/29 11:44:47;;;;;;;1.20;1.00;;;11.70;96.90;;;;;;5070358;28;20528;-67
2021/01/29 11:47:24;;;;;;;1.20;1.00;;;11.70;97.80;;;;;;5068117;28;20449;-66
2021/01/29 11:49:58;;;;;;;1.30;1.03;;;11.60;96.40;;;;;;5070664;28;20526;-64
2021/01/29 11:52:32;;;;;;;1.20;1.00;;;11.50;97.60;;;;;;5068534;28;20455;-65
2021/01/29 11:55:10;;;;;;;1.20;1.10;;;11.40;98.00;;;;;;5072109;28;20453;-65
2021/01/29 11:57:46;;;;;;;1.20;1.00;;;11.30;98.00;;;;;;5072388;28;20460;-64
2021/01/29 12:00:19;;;;;;;1.20;1.00;;;11.30;98.00;;;;;;5074924;28;20810;-65
2021/01/29 12:03:00;;;;;;;1.20;1.00;;;11.20;98.00;;;;;;5074622;28;20982;-66
2021/01/29 12:05:33;;;;;;;1.20;1.00;;;11.10;98.00;;;;;;5072084;28;21107;-64
2021/01/29 12:08:22;;;;;;;1.20;1.00;;;11.10;98.00;;;;;;5074767;28;20520;-65
2021/01/29 12:11:02;;;;;;;1.20;1.00;;;11.30;98.00;;;;;;5072499;28;21021;-65
2021/01/29 12:13:38;;;;;;;1.20;1.00;;;11.50;98.00;;;;;;5074454;28;20490;-64
2021/01/29 12:16:13;;;;;;;1.20;1.10;;;11.40;98.00;;;;;;5071957;28;20497;-64
2021/01/29 12:18:47;;;;;;;1.20;1.07;;;11.30;98.00;;;;;;5074463;28;20462;-64
2021/01/29 12:21:27;;;;;;;1.20;1.00;;;11.30;98.00;;;;;;5071118;28;20886;-64
2021/01/29 12:24:02;;;;;;;1.50;1.10;;;11.30;98.00;;;;;;5073901;28;20543;-65
2021/01/29 12:26:41;;;;;;;1.20;1.00;;;11.30;98.00;;;;;;5071726;28;20539;-64
2021/01/29 12:29:26;;;;;;;1.20;0.90;;;11.30;98.00;;;;;;5073867;28;20495;-64
2021/01/29 12:32:07;;;;;;;1.20;1.00;;;11.30;98.00;;;;;;5070313;28;20467;-64
2021/01/29 12:34:41;;;;;;;1.20;0.90;;;11.30;98.00;;;;;;5073668;28;20460;-64
2021/01/29 12:37:13;;;;;;;1.20;0.90;;;11.30;98.00;;;;;;5071816;28;20463;-64
2021/01/29 12:39:45;;;;;;;1.20;0.90;;;11.20;98.00;;;;;;5073710;28;20461;-65
2021/01/29 12:42:17;;;;;;;1.60;1.10;;;11.30;98.00;;;;;;5071637;28;20466;-64
2021/01/29 12:44:49;;;;;;;1.20;1.00;;;11.30;98.00;;;;;;5073537;28;20491;-64
2021/01/29 12:47:32;;;;;;;1.20;1.00;;;11.30;97.70;;;;;;5071506;28;20456;-64
2021/01/29 12:50:07;;;;;;;1.20;1.00;;;11.30;97.20;;;;;;5073594;28;20529;-65
2021/01/29 12:52:41;;;;;;;1.20;0.93;;;11.30;97.60;;;;;;5071389;28;20510;-67
2021/01/29 12:55:15;;;;;;;1.20;1.00;;;11.20;95.30;;;;;;5073321;28;20456;-69
2021/01/29 12:57:42;;;;;;;1.20;1.00;;;11.10;96.10;;;;;;5071163;28;20464;-67
2021/01/29 13:00:16;;;;;;;1.20;1.00;;;11.00;97.10;;;;;;5074280;28;20489;-67
2021/01/29 13:02:55;;;;;;;1.20;0.90;;;11.10;98.00;;;;;;5070544;28;20934;-68
2021/01/29 13:05:42;;;;;;;1.20;1.10;;;11.00;98.00;;;;;;5073693;28;20485;-68
2021/01/29 13:08:44;;;;;;;1.20;1.10;;;10.90;98.00;;;;;;5073644;28;20829;-68
2021/01/29 13:11:28;;;;;;;1.20;1.00;;;10.80;98.00;;;;;;5055206;28;20520;-67
2021/01/29 13:14:06;;;;;;;1.20;1.00;;;10.80;98.00;;;;;;5073879;28;20461;-67
2021/01/29 13:16:40;;;;;;;1.20;1.00;;;10.80;98.00;;;;;;5071189;28;20980;-66
2021/01/29 13:19:20;;;;;;;1.20;0.90;;;10.70;98.00;;;;;;5073677;28;20455;-65
2021/01/29 13:21:51;;;;;;;1.20;1.00;;;10.70;98.00;;;;;;5071477;28;20490;-64
2021/01/29 13:24:25;;;;;;;1.20;1.00;;;10.70;98.00;;;;;;5073662;28;20514;-65
2021/01/29 13:26:53;;;;;;;1.20;1.00;;;10.80;98.00;;;;;;5071347;28;20470;-65
2021/01/29 13:29:23;;;;;;;1.20;0.97;;;10.80;98.00;;;;;;5073446;28;20463;-66
2021/01/29 13:31:51;;;;;;;1.20;1.00;;;10.80;98.00;;;;;;5071354;28;20458;-65
2021/01/29 13:34:21;;;;;;;1.20;1.00;;;10.80;98.00;;;;;;5073287;28;20460;-65
2021/01/29 13:37:01;;;;;;;1.20;0.90;;;10.80;98.00;;;;;;5071139;28;20551;-66
2021/01/29 13:39:31;;;;;;;1.20;1.00;;;10.80;98.00;;;;;;5073207;28;21238;-64
2021/01/29 13:42:00;;;;;;;1.20;1.00;;;10.90;98.00;;;;;;5071052;28;20835;-64
2021/01/29 13:44:37;;;;;;;1.30;1.30;;;10.90;98.00;;;;;;5072787;28;20498;-66
2021/01/29 13:47:08;;;;;;;1.20;1.00;;;10.90;98.00;;;;;;5071031;28;20468;-65
2021/01/29 13:49:36;;;;;;;1.20;0.90;;;10.90;98.00;;;;;;5073269;28;20466;-64
2021/01/29 13:52:36;;;;;;;1.20;0.97;;;10.90;98.00;;;;;;5070943;28;20820;-64